createdAt,value
2022-08-12T00:02:26.107Z,10.93
2022-08-12T00:07:48.927Z,12.43
2022-08-12T00:13:12.709Z,6.53
2022-08-12T00:18:34.635Z,5.65
2022-08-12T00:23:56.186Z,7.20
2022-08-12T00:29:18.996Z,10.83
2022-08-12T00:34:40.747Z,7.10
2022-08-12T00:40:04.609Z,8.37
2022-08-12T00:45:13.968Z,10.37
2022-08-12T00:50:19.958Z,7.83
2022-08-12T00:55:23.267Z,5.53
2022-08-12T01:00:27.407Z,6.50
2022-08-12T01:05:51.668Z,6.93
2022-08-12T01:11:15.787Z,5.80
2022-08-12T01:16:23.787Z,10.27
2022-08-12T01:22:06.746Z,7.27
2022-08-12T01:27:11.987Z,6.47
2022-08-12T01:32:16.747Z,8.07
2022-08-12T01:37:22.846Z,8.30
2022-08-12T01:42:28.087Z,9.73
2022-08-12T01:47:50.555Z,9.50
2022-08-12T01:53:15.295Z,11.43
2022-08-12T01:58:58.238Z,6.17
2022-08-12T02:04:35.027Z,9.87
2022-08-12T02:10:50.110Z,7.03
2022-08-12T02:15:56.868Z,9.97
2022-08-12T02:21:11.322Z,8.43
2022-08-12T02:26:17.086Z,7.37
2022-08-12T02:31:21.266Z,6.27
2022-08-12T02:36:25.506Z,8.47
2022-08-12T02:41:33.034Z,7.57
2022-08-12T02:46:38.317Z,8.37
2022-08-12T02:51:47.242Z,7.27
2022-08-12T02:56:51.128Z,10.80
2022-08-12T03:02:03.750Z,7.00
2022-08-12T03:07:11.365Z,8.67
2022-08-12T03:12:18.198Z,8.33
2022-08-12T03:18:25.601Z,9.17
2022-08-12T03:23:19.374Z,9.67
2022-08-12T03:28:51.359Z,5.57
2022-08-12T03:34:02.847Z,12.97
2022-08-12T03:39:18.409Z,10.47
2022-08-12T03:45:14.725Z,11.80
2022-08-12T03:50:37.827Z,7.73
2022-08-12T03:55:59.934Z,8.90
2022-08-12T04:01:03.317Z,16.13
2022-08-12T04:06:09.786Z,6.83
2022-08-12T04:11:32.239Z,12.23
2022-08-12T04:16:36.669Z,9.43
2022-08-12T04:21:42.239Z,6.37
2022-08-12T04:27:07.668Z,6.70
2022-08-12T04:32:11.626Z,6.83
2022-08-12T04:37:16.656Z,6.80
2022-08-12T04:42:20.928Z,7.60
2022-08-12T04:47:24.666Z,11.90
2022-08-12T04:52:30.675Z,14.00
2022-08-12T04:57:36.771Z,8.20
2022-08-12T05:02:40.369Z,7.90
2022-08-12T05:07:45.752Z,9.97
2022-08-12T05:13:00.306Z,6.63
2022-08-12T05:18:19.553Z,8.27
2022-08-12T05:23:24.006Z,6.40
2022-08-12T05:28:28.350Z,7.67
2022-08-12T05:33:40.626Z,5.97
2022-08-12T05:38:57.488Z,5.43
2022-08-12T05:44:05.838Z,5.63
2022-08-12T05:49:09.886Z,9.30
2022-08-12T05:54:13.410Z,18.08
2022-08-12T05:59:17.566Z,6.78
2022-08-12T06:04:21.274Z,10.25
2022-08-12T06:09:27.028Z,6.85
2022-08-12T06:14:30.288Z,6.22
2022-08-12T06:20:22.753Z,7.45
2022-08-12T06:24:56.857Z,4.78
2022-08-12T06:30:08.453Z,6.10
2022-08-12T06:35:22.946Z,6.88
2022-08-12T06:40:46.526Z,17.73
2022-08-12T06:45:50.007Z,3.97
2022-08-12T06:50:54.108Z,6.55
2022-08-12T06:55:58.702Z,43.67
2022-08-12T07:01:01.879Z,7.40
2022-08-12T07:06:07.682Z,13.57
2022-08-12T07:11:15.336Z,3.40
2022-08-12T07:16:20.247Z,5.20
2022-08-12T07:21:23.707Z,5.70
2022-08-12T07:33:05.907Z,6.22
2022-08-12T07:38:29.058Z,6.13
2022-08-12T07:43:35.888Z,4.78
2022-08-12T07:48:45.707Z,6.05
2022-08-12T07:54:00.001Z,4.88
2022-08-12T07:59:05.561Z,2.08
2022-08-12T08:04:26.717Z,2.75
2022-08-12T08:09:29.744Z,2.17
2022-08-12T08:14:33.257Z,5.43
2022-08-12T08:20:02.307Z,10.07
2022-08-12T08:25:03.430Z,4.65
2022-08-12T08:30:24.666Z,2.97
2022-08-12T08:35:38.806Z,2.10
2022-08-12T08:41:07.868Z,4.32
2022-08-12T08:46:11.090Z,4.20
2022-08-12T08:51:14.250Z,2.42
2022-08-12T08:56:18.766Z,1.88
2022-08-12T09:01:22.839Z,6.38
2022-08-12T09:06:37.336Z,4.88
2022-08-12T09:12:10.882Z,4.05
2022-08-12T09:17:21.395Z,4.75
2022-08-12T09:22:29.274Z,4.43
2022-08-12T09:28:03.841Z,4.82
2022-08-12T09:33:08.627Z,3.75
2022-08-12T09:38:28.230Z,5.18
2022-08-12T09:43:53.779Z,5.10
2022-08-12T09:49:13.442Z,5.63
2022-08-12T09:54:33.209Z,1.95
2022-08-12T10:00:16.792Z,8.15
2022-08-12T10:05:18.005Z,2.92
2022-08-12T10:10:30.189Z,8.85
2022-08-12T10:16:00.586Z,3.88
2022-08-12T10:21:00.015Z,5.32
2022-08-12T10:26:37.254Z,4.57
2022-08-12T10:32:21.092Z,2.70
2022-08-12T10:38:33.693Z,7.53
2022-08-12T10:43:05.006Z,3.30
2022-08-12T10:48:21.681Z,5.07
2022-08-12T10:53:45.457Z,3.90
2022-08-12T10:58:50.007Z,7.70
2022-08-12T11:04:23.369Z,2.78
2022-08-12T11:09:41.892Z,2.45
2022-08-12T11:14:51.486Z,4.90
2022-08-12T11:19:55.127Z,9.10
2022-08-12T11:24:58.148Z,2.53
2022-08-12T11:30:06.127Z,2.58
2022-08-12T11:35:11.679Z,3.28
2022-08-12T11:40:15.619Z,7.63
2022-08-12T11:45:20.300Z,3.25
2022-08-12T11:50:32.100Z,3.40
2022-08-12T11:55:36.092Z,4.05
2022-08-12T12:06:16.199Z,4.22
2022-08-12T12:11:21.610Z,2.65
2022-08-12T12:16:25.031Z,6.18
2022-08-12T12:21:46.913Z,3.78
2022-08-12T12:27:00.331Z,5.70
2022-08-12T12:32:11.219Z,11.45
2022-08-12T12:37:16.242Z,5.40
2022-08-12T12:42:55.871Z,5.30
2022-08-12T12:48:10.421Z,11.23
2022-08-12T12:54:05.262Z,3.38
2022-08-12T12:58:46.003Z,4.55
2022-08-12T13:03:50.644Z,6.90
2022-08-12T13:08:55.329Z,8.10
2022-08-12T13:14:09.481Z,7.38
2022-08-12T13:19:16.988Z,5.57
2022-08-12T13:24:31.676Z,5.63
2022-08-12T13:29:37.049Z,4.57
2022-08-12T13:34:40.054Z,3.47
2022-08-12T13:39:46.326Z,6.43
2022-08-12T13:44:53.867Z,5.13
2022-08-12T13:49:59.840Z,5.45
2022-08-12T13:55:06.243Z,3.33
2022-08-12T14:00:11.196Z,6.55
2022-08-12T14:05:37.795Z,6.28
2022-08-12T14:10:50.558Z,9.35
2022-08-12T14:16:04.652Z,6.13
2022-08-12T14:21:18.155Z,5.28
2022-08-12T14:26:29.713Z,5.22
2022-08-12T14:31:33.814Z,4.45
2022-08-12T14:36:37.962Z,8.68
2022-08-12T14:41:48.447Z,6.80
2022-08-12T14:47:01.233Z,4.55
2022-08-12T14:53:15.380Z,4.88
2022-08-12T14:57:57.410Z,6.45
2022-08-12T15:03:04.075Z,4.40
2022-08-12T15:08:12.996Z,7.50
2022-08-12T15:13:19.315Z,8.70
2022-08-12T15:18:25.994Z,4.45
2022-08-12T15:23:33.193Z,6.63
2022-08-12T15:28:55.982Z,8.38
2022-08-12T15:33:59.273Z,6.18
2022-08-12T15:39:02.661Z,6.05
2022-08-12T15:44:17.128Z,5.25
2022-08-12T15:49:34.370Z,6.07
2022-08-12T15:54:46.660Z,6.93
2022-08-12T16:00:03.842Z,7.38
2022-08-12T16:06:11.604Z,8.40
2022-08-12T16:10:35.012Z,7.68
2022-08-12T16:15:42.308Z,5.68
2022-08-12T16:20:54.453Z,10.30
2022-08-12T16:26:05.161Z,8.98
2022-08-12T16:31:13.380Z,7.10
2022-08-12T16:36:19.172Z,11.50
2022-08-12T16:41:23.412Z,7.97
2022-08-12T16:46:31.934Z,6.75
2022-08-12T16:51:40.843Z,6.00
2022-08-12T16:56:54.654Z,7.25
2022-08-12T17:02:02.892Z,9.13
2022-08-12T17:07:13.056Z,11.57
2022-08-12T17:12:21.840Z,18.80
2022-08-12T17:17:39.425Z,8.90
2022-08-12T17:22:43.590Z,8.90
2022-08-12T17:27:56.947Z,11.98
2022-08-12T17:33:06.759Z,5.63
2022-08-12T17:38:14.489Z,16.77
2022-08-12T17:43:57.526Z,9.10
2022-08-12T17:48:54.914Z,9.05
2022-08-12T17:54:10.877Z,6.78
2022-08-12T17:59:47.228Z,9.40
2022-08-12T18:05:03.171Z,7.45
2022-08-12T18:10:08.674Z,12.73
2022-08-12T18:15:26.995Z,26.45
2022-08-12T18:20:45.225Z,20.00
2022-08-12T18:26:14.837Z,19.13
2022-08-12T18:31:44.148Z,14.90
2022-08-12T18:36:55.781Z,19.27
2022-08-12T18:42:00.227Z,25.42
2022-08-12T18:47:05.407Z,27.98
2022-08-12T18:52:12.520Z,158.52
2022-08-12T18:57:45.672Z,79.05
2022-08-12T19:02:41.160Z,107.50
2022-08-12T19:08:00.906Z,73.32
2022-08-12T19:13:35.285Z,20.77
2022-08-12T19:24:49.927Z,13.85
2022-08-12T19:30:07.021Z,7.10
2022-08-12T19:46:52.700Z,11.95
2022-08-12T19:51:56.645Z,6.47
2022-08-12T19:57:02.246Z,6.45
2022-08-12T20:02:15.313Z,11.45
2022-08-12T20:07:23.367Z,6.47
2022-08-12T20:12:59.311Z,7.10
2022-08-12T20:18:00.926Z,5.43
2022-08-12T20:30:09.655Z,6.70
2022-08-12T20:35:18.328Z,3.92
2022-08-12T20:40:28.456Z,6.65
2022-08-12T20:45:44.927Z,10.32
2022-08-12T20:50:56.225Z,12.07
2022-08-12T20:56:30.819Z,6.65
2022-08-12T21:01:47.522Z,5.57
2022-08-12T21:06:57.686Z,5.43
2022-08-12T21:12:27.927Z,8.35
2022-08-12T21:18:00.567Z,4.72
2022-08-12T21:23:10.987Z,9.80
2022-08-12T21:28:30.862Z,5.75
2022-08-12T21:33:58.689Z,6.65
2022-08-12T21:39:18.015Z,8.48
2022-08-12T21:45:44.128Z,8.23
2022-08-12T21:49:53.662Z,7.57
2022-08-12T21:55:00.449Z,9.18
2022-08-12T22:00:04.472Z,10.30
2022-08-12T22:05:38.798Z,8.55
2022-08-12T22:10:47.445Z,16.75
2022-08-12T22:15:55.832Z,6.93
2022-08-12T22:20:59.225Z,8.00
2022-08-12T22:26:07.328Z,5.43
2022-08-12T22:31:10.796Z,11.32
2022-08-12T22:36:21.352Z,12.70
2022-08-12T22:41:48.045Z,10.80
2022-08-12T22:47:51.133Z,12.95
2022-08-12T22:52:42.368Z,8.02
2022-08-12T22:57:48.936Z,8.55
2022-08-12T23:03:03.041Z,8.27
2022-08-12T23:08:07.006Z,10.18
2022-08-12T23:13:55.419Z,4.95
2022-08-12T23:19:10.827Z,7.30
2022-08-12T23:24:23.627Z,8.43
2022-08-12T23:29:43.307Z,9.07
2022-08-12T23:34:53.293Z,9.13
2022-08-12T23:40:14.484Z,15.88
2022-08-12T23:45:30.576Z,8.88
2022-08-12T23:50:35.044Z,9.73
2022-08-12T23:55:40.793Z,11.70
